KISQ/ISQ METAR and TAF weather

Enter ICAO airport designator
Station Type Date Time Source
KISQ METAR 2021/09/23 17:15 UTC NOAA

KISQ 231715Z AUTO 34015G21KT 10SM SCT120 14/04 A2990 RMK AO2 T01350036


Station Type Date Time Source
KISQ Decoded METAR 2021/09/23 17:15 UTC NOAA

Manistique, Schoolcraft County Airport, MI, United States (KISQ) 45-58-29N 086-10-19W
Sep 23, 2021 - 01:15 PM EDT / 2021.09.23 1715 UTC
Wind: from the NNW (340 degrees) at 17 MPH (15 KT) gusting to 24 MPH (21 KT):0
Visibility: 10 mile(s):0
Sky conditions: partly cloudy
Temperature: 56.3 F (13.5 C)
Dew Point: 38.5 F (3.6 C)
Relative Humidity: 51%
Pressure (altimeter): 29.9 in. Hg (1012 hPa)
ob: KISQ 231715Z AUTO 34015G21KT 10SM SCT120 14/04 A2990 RMK AO2 T01350036
cycle: 17

Station Type Date Time Source
KISQ TAF UTC NOAA

Error!

Example: see airport list